createdAt,value
2023-03-21T00:00:59.414Z,12.97
2023-03-21T00:02:03.273Z,12.93
2023-03-21T00:03:07.315Z,12.91
2023-03-21T00:04:11.590Z,12.92
2023-03-21T00:05:16.250Z,12.91
2023-03-21T00:06:20.039Z,12.94
2023-03-21T00:07:23.881Z,12.95
2023-03-21T00:08:27.939Z,12.94
2023-03-21T00:09:31.542Z,12.89
2023-03-21T00:10:42.298Z,12.88
2023-03-21T00:11:47.614Z,12.91
2023-03-21T00:12:59.288Z,12.88
2023-03-21T00:14:03.444Z,12.88
2023-03-21T00:15:08.109Z,12.87
2023-03-21T00:16:19.002Z,12.83
2023-03-21T00:17:33.530Z,12.81
2023-03-21T00:18:37.666Z,12.84
2023-03-21T00:19:41.898Z,12.82
2023-03-21T00:20:53.816Z,12.80
2023-03-21T00:22:07.931Z,12.83
2023-03-21T00:23:11.947Z,12.88
2023-03-21T00:24:15.605Z,12.89
2023-03-21T00:25:19.619Z,12.91
2023-03-21T00:26:23.634Z,12.92
2023-03-21T00:27:49.994Z,12.93
2023-03-21T00:28:51.819Z,12.94
2023-03-21T00:29:57.579Z,12.95
2023-03-21T00:31:01.775Z,13.01
2023-03-21T00:32:05.854Z,13.03
2023-03-21T00:33:21.996Z,13.06
2023-03-21T00:34:37.030Z,13.06
2023-03-21T00:36:02.157Z,13.10
2023-03-21T00:37:09.038Z,13.10
2023-03-21T00:38:12.673Z,13.13
2023-03-21T00:39:16.649Z,13.14
2023-03-21T00:40:27.944Z,13.18
2023-03-21T00:41:42.488Z,13.22
2023-03-21T00:42:47.005Z,13.24
2023-03-21T00:43:50.961Z,13.25
2023-03-21T00:44:54.482Z,13.27
2023-03-21T00:46:01.340Z,13.27
2023-03-21T00:47:07.984Z,13.27
2023-03-21T00:48:11.810Z,13.28
2023-03-21T00:49:15.851Z,13.26
2023-03-21T00:50:19.490Z,13.22
2023-03-21T00:51:29.259Z,13.24
2023-03-21T00:52:40.548Z,13.21
2023-03-21T00:53:45.263Z,13.21
2023-03-21T00:54:49.432Z,13.19
2023-03-21T00:55:52.941Z,13.20
2023-03-21T00:56:56.475Z,13.19
2023-03-21T00:58:02.450Z,13.19
2023-03-21T00:59:06.205Z,13.23
2023-03-21T01:00:11.800Z,13.25
2023-03-21T01:01:15.509Z,13.31
2023-03-21T01:02:23.506Z,13.31
2023-03-21T01:03:27.583Z,13.34
2023-03-21T01:04:31.702Z,13.36
2023-03-21T01:05:55.821Z,13.38
2023-03-21T01:06:59.654Z,13.39
2023-03-21T01:08:08.147Z,13.39
2023-03-21T01:09:20.075Z,13.40
2023-03-21T01:10:24.509Z,13.40
2023-03-21T01:11:29.714Z,13.40
2023-03-21T01:12:33.253Z,13.39
2023-03-21T01:13:40.864Z,13.38
2023-03-21T01:14:48.148Z,13.39
2023-03-21T01:15:53.793Z,13.38
2023-03-21T01:16:57.873Z,13.39
2023-03-21T01:18:02.178Z,13.42
2023-03-21T01:19:11.908Z,13.44
2023-03-21T01:20:19.003Z,13.43
2023-03-21T01:21:23.922Z,13.46
2023-03-21T01:22:27.902Z,13.46
2023-03-21T01:23:31.985Z,13.46
2023-03-21T01:24:40.450Z,13.49
2023-03-21T01:25:48.943Z,13.46
2023-03-21T01:26:52.344Z,13.44
2023-03-21T01:27:56.106Z,13.44
2023-03-21T01:28:59.915Z,13.39
2023-03-21T01:30:11.162Z,13.36
2023-03-21T01:31:19.402Z,13.34
2023-03-21T01:32:23.021Z,13.37
2023-03-21T01:33:26.558Z,13.36
2023-03-21T01:34:30.864Z,13.36
2023-03-21T01:35:47.891Z,13.37
2023-03-21T01:36:54.637Z,13.36
2023-03-21T01:37:58.693Z,13.28
2023-03-21T01:39:02.645Z,13.12
2023-03-21T01:40:07.009Z,13.11
2023-03-21T01:41:20.368Z,13.12
2023-03-21T01:42:25.152Z,13.11
2023-03-21T01:43:33.115Z,13.13
2023-03-21T01:44:56.767Z,13.17
2023-03-21T01:46:11.478Z,13.17
2023-03-21T01:47:45.324Z,13.19
2023-03-21T01:49:19.669Z,13.25
2023-03-21T01:50:26.821Z,13.25
2023-03-21T01:51:50.570Z,13.29
2023-03-21T01:52:57.092Z,13.32
2023-03-21T01:54:07.737Z,13.34
2023-03-21T01:55:13.266Z,13.33
2023-03-21T01:56:37.680Z,13.38
2023-03-21T01:58:03.944Z,13.39
2023-03-21T01:59:22.538Z,13.36
2023-03-21T02:00:45.814Z,13.35
2023-03-21T02:02:12.217Z,13.35
2023-03-21T02:03:36.044Z,13.36
2023-03-21T02:04:56.883Z,13.36
2023-03-21T02:06:11.114Z,13.40
2023-03-21T02:07:19.035Z,13.42
2023-03-21T02:08:39.118Z,13.42
2023-03-21T02:09:49.812Z,13.44
2023-03-21T02:10:57.213Z,13.45
2023-03-21T02:12:12.061Z,13.47
2023-03-21T02:13:16.818Z,13.49
2023-03-21T02:14:28.903Z,13.49
2023-03-21T02:16:03.992Z,13.50
2023-03-21T02:17:30.403Z,13.49
2023-03-21T02:18:45.453Z,13.47
2023-03-21T02:20:43.416Z,13.45
2023-03-21T02:21:58.675Z,13.44
2023-03-21T02:23:27.069Z,13.40
2023-03-21T02:24:59.625Z,13.38
2023-03-21T02:26:36.111Z,13.32
2023-03-21T02:28:13.239Z,13.29
2023-03-21T02:29:17.793Z,13.26
2023-03-21T02:30:56.995Z,13.25
2023-03-21T02:32:31.517Z,13.21
2023-03-21T02:34:17.052Z,13.19
2023-03-21T02:35:44.143Z,13.14
2023-03-21T02:37:16.019Z,13.10
2023-03-21T02:38:48.336Z,13.10
2023-03-21T02:40:20.566Z,13.12
2023-03-21T02:41:50.034Z,13.10
2023-03-21T02:43:26.200Z,13.11
2023-03-21T02:45:09.218Z,13.12
2023-03-21T02:47:02.912Z,13.16
2023-03-21T02:48:25.518Z,13.20
2023-03-21T02:49:44.031Z,13.21
2023-03-21T02:50:52.255Z,13.23
2023-03-21T02:52:00.264Z,13.24
2023-03-21T02:53:10.274Z,13.25
2023-03-21T02:54:32.272Z,13.26
2023-03-21T02:55:39.969Z,13.23
2023-03-21T02:56:43.948Z,13.23
2023-03-21T02:57:48.791Z,13.24
2023-03-21T02:58:52.738Z,13.21
2023-03-21T03:00:02.427Z,13.22
2023-03-21T03:01:12.902Z,13.19
2023-03-21T03:02:25.978Z,13.18
2023-03-21T03:03:34.306Z,13.18
2023-03-21T03:04:40.960Z,13.16
2023-03-21T03:05:53.506Z,13.15
2023-03-21T03:07:01.981Z,13.14
2023-03-21T03:08:43.262Z,13.13
2023-03-21T03:10:39.080Z,13.12
2023-03-21T03:11:46.849Z,13.10
2023-03-21T03:12:56.088Z,13.09
2023-03-21T03:14:40.102Z,13.08
2023-03-21T03:16:05.847Z,13.10
2023-03-21T03:17:22.231Z,13.10
2023-03-21T03:18:55.718Z,13.10
2023-03-21T03:20:21.210Z,13.11
2023-03-21T03:21:32.659Z,13.12
2023-03-21T03:23:22.549Z,13.12
2023-03-21T03:24:43.063Z,13.10
2023-03-21T03:25:51.548Z,13.07
2023-03-21T03:27:05.398Z,13.03
2023-03-21T03:28:09.102Z,12.97
2023-03-21T03:29:17.518Z,12.91
2023-03-21T03:30:23.840Z,12.88
2023-03-21T03:31:34.480Z,12.87
2023-03-21T03:32:45.824Z,12.72
2023-03-21T03:33:53.037Z,12.61
2023-03-21T03:34:57.554Z,12.51
2023-03-21T03:36:07.885Z,12.41
2023-03-21T03:37:15.528Z,12.34
2023-03-21T03:38:19.468Z,12.24
2023-03-21T03:39:28.861Z,12.19
2023-03-21T03:40:43.057Z,12.13
2023-03-21T03:42:12.707Z,12.08
2023-03-21T03:43:42.421Z,12.02
2023-03-21T03:44:46.673Z,11.99
2023-03-21T03:45:55.216Z,11.94
2023-03-21T03:47:01.577Z,11.89
2023-03-21T03:48:14.651Z,11.81
2023-03-21T03:49:23.769Z,11.71
2023-03-21T03:50:31.219Z,11.65
2023-03-21T03:51:58.002Z,11.65
2023-03-21T03:53:18.335Z,11.68
2023-03-21T03:54:46.434Z,11.71
2023-03-21T03:55:50.715Z,11.73
2023-03-21T03:56:57.608Z,11.77
2023-03-21T03:58:04.698Z,11.81
2023-03-21T03:59:10.471Z,11.83
2023-03-21T04:00:34.276Z,11.82
2023-03-21T04:01:38.042Z,11.84
2023-03-21T04:02:41.552Z,11.84
2023-03-21T04:03:50.607Z,11.86
2023-03-21T04:04:58.698Z,11.84
2023-03-21T04:06:02.755Z,11.85
2023-03-21T04:07:06.912Z,11.86
2023-03-21T04:08:10.857Z,11.86
2023-03-21T04:09:25.081Z,11.86
2023-03-21T04:10:36.936Z,11.83
2023-03-21T04:11:40.977Z,11.83
2023-03-21T04:12:44.743Z,11.87
2023-03-21T04:14:00.126Z,11.85
2023-03-21T04:15:10.703Z,11.88
2023-03-21T04:16:20.340Z,11.87
2023-03-21T04:17:24.194Z,11.87
2023-03-21T04:18:28.774Z,11.86
2023-03-21T04:19:33.418Z,11.87
2023-03-21T04:20:37.587Z,11.84
2023-03-21T04:21:42.805Z,11.83
2023-03-21T04:22:46.812Z,11.84
2023-03-21T04:23:51.376Z,11.82
2023-03-21T04:24:57.042Z,11.77
2023-03-21T04:26:00.782Z,11.79
2023-03-21T04:27:12.135Z,11.80
2023-03-21T04:28:18.312Z,11.79
2023-03-21T04:29:30.188Z,11.77
2023-03-21T04:30:37.684Z,11.74
2023-03-21T04:31:50.889Z,11.74
2023-03-21T04:32:57.569Z,11.69
2023-03-21T04:34:04.117Z,11.69
2023-03-21T04:35:09.322Z,11.71
2023-03-21T04:36:26.222Z,11.71
2023-03-21T04:37:34.428Z,11.71
2023-03-21T04:38:38.692Z,11.66
2023-03-21T04:39:43.879Z,11.66
2023-03-21T04:40:47.532Z,11.63
2023-03-21T04:41:51.463Z,11.61
2023-03-21T04:42:54.974Z,11.61
2023-03-21T04:43:58.990Z,11.61
2023-03-21T04:45:03.346Z,11.59
2023-03-21T04:46:07.757Z,11.58
2023-03-21T04:47:14.182Z,11.60
2023-03-21T04:48:18.732Z,11.60
2023-03-21T04:49:22.198Z,11.56
2023-03-21T04:50:26.375Z,11.57
2023-03-21T04:51:30.035Z,11.57
2023-03-21T04:52:34.107Z,11.56
2023-03-21T04:53:38.932Z,11.56
2023-03-21T04:54:42.893Z,11.55
2023-03-21T04:55:47.034Z,11.55
2023-03-21T04:56:52.522Z,11.53
2023-03-21T04:57:56.542Z,11.58
2023-03-21T04:59:01.395Z,11.61
2023-03-21T05:00:10.541Z,11.58
2023-03-21T05:01:15.144Z,11.62
2023-03-21T05:02:18.931Z,11.62
2023-03-21T05:03:22.819Z,11.68
2023-03-21T05:04:27.806Z,11.69
2023-03-21T05:05:32.534Z,11.71
2023-03-21T05:06:36.688Z,11.76
2023-03-21T05:07:41.462Z,11.80
2023-03-21T05:08:45.194Z,11.80
2023-03-21T05:09:49.528Z,11.79
2023-03-21T05:10:54.234Z,11.81
2023-03-21T05:11:58.180Z,11.83
2023-03-21T05:13:02.609Z,11.85
2023-03-21T05:14:06.999Z,11.86
2023-03-21T05:15:11.010Z,11.89
2023-03-21T05:16:14.925Z,11.88
2023-03-21T05:17:23.730Z,11.88
2023-03-21T05:18:28.200Z,11.87
2023-03-21T05:19:42.247Z,11.89
2023-03-21T05:20:46.158Z,11.92
2023-03-21T05:21:51.046Z,11.94
2023-03-21T05:23:02.052Z,11.95
2023-03-21T05:24:07.072Z,11.95
2023-03-21T05:25:12.572Z,12.00
2023-03-21T05:26:34.830Z,12.02
2023-03-21T05:27:54.626Z,12.06
2023-03-21T05:29:03.311Z,12.07
2023-03-21T05:30:10.346Z,12.08
2023-03-21T05:31:17.202Z,12.10
2023-03-21T05:32:22.730Z,12.11
2023-03-21T05:33:26.787Z,12.12
2023-03-21T05:34:31.719Z,12.14
2023-03-21T05:35:36.352Z,12.18
2023-03-21T05:36:43.181Z,12.19
2023-03-21T05:37:48.009Z,12.19
2023-03-21T05:38:51.950Z,12.24
2023-03-21T05:39:55.804Z,12.25
2023-03-21T05:41:04.827Z,12.30
2023-03-21T05:42:08.956Z,12.32
2023-03-21T05:43:12.458Z,12.33
2023-03-21T05:44:17.054Z,12.31
2023-03-21T05:45:21.542Z,12.36
2023-03-21T05:46:27.389Z,12.40
2023-03-21T05:47:31.537Z,12.39
2023-03-21T05:48:36.745Z,12.37
2023-03-21T05:49:50.378Z,12.31
2023-03-21T05:50:55.339Z,12.33
2023-03-21T05:52:00.413Z,12.33
2023-03-21T05:53:04.478Z,12.30
2023-03-21T05:54:08.615Z,12.28
2023-03-21T05:55:12.296Z,12.27
2023-03-21T05:56:16.429Z,12.24
2023-03-21T05:57:46.292Z,12.22
2023-03-21T05:58:55.502Z,12.21
2023-03-21T06:00:00.726Z,12.20
2023-03-21T06:01:07.174Z,12.24
2023-03-21T06:02:13.585Z,12.23
2023-03-21T06:03:18.825Z,12.25
2023-03-21T06:04:43.135Z,12.22
2023-03-21T06:05:47.293Z,12.25
2023-03-21T06:06:57.116Z,12.24
2023-03-21T06:08:00.930Z,12.21
2023-03-21T06:09:05.251Z,12.21
2023-03-21T06:10:09.812Z,12.19
2023-03-21T06:11:37.949Z,12.19
2023-03-21T06:12:59.811Z,12.19
2023-03-21T06:14:09.700Z,12.20
2023-03-21T06:15:14.684Z,12.22
2023-03-21T06:16:29.997Z,12.23
2023-03-21T06:17:33.723Z,12.23
2023-03-21T06:18:45.012Z,12.24
2023-03-21T06:20:09.031Z,12.31
2023-03-21T06:21:17.777Z,12.32
2023-03-21T06:22:21.637Z,12.33
2023-03-21T06:23:26.404Z,12.36
2023-03-21T06:24:30.175Z,12.37
2023-03-21T06:25:33.914Z,12.36
2023-03-21T06:26:37.567Z,12.37
2023-03-21T06:27:41.504Z,12.41
2023-03-21T06:28:45.084Z,12.41
2023-03-21T06:29:49.594Z,12.43
2023-03-21T06:30:53.512Z,12.43
2023-03-21T06:32:01.240Z,12.44
2023-03-21T06:33:04.801Z,12.44
2023-03-21T06:34:08.817Z,12.46
2023-03-21T06:35:12.806Z,12.48
2023-03-21T06:36:16.945Z,12.48
2023-03-21T06:37:20.853Z,12.47
2023-03-21T06:38:24.368Z,12.48
2023-03-21T06:39:28.430Z,12.48
2023-03-21T06:40:32.040Z,12.48
2023-03-21T06:41:35.597Z,12.48
2023-03-21T06:42:40.549Z,12.48
2023-03-21T06:43:47.283Z,12.51
2023-03-21T06:44:51.480Z,12.52
2023-03-21T06:45:55.020Z,12.53
2023-03-21T06:46:59.029Z,12.53
2023-03-21T06:48:03.124Z,12.53
2023-03-21T06:49:18.603Z,12.59
2023-03-21T06:50:22.852Z,12.61
2023-03-21T06:51:27.235Z,12.59
2023-03-21T06:52:42.919Z,12.60
2023-03-21T06:53:47.327Z,12.63
2023-03-21T06:55:19.861Z,12.60
2023-03-21T06:56:23.327Z,12.62
2023-03-21T06:57:27.027Z,12.63
2023-03-21T06:58:30.996Z,12.67
2023-03-21T06:59:34.708Z,12.66
2023-03-21T07:00:41.306Z,12.68
2023-03-21T07:01:45.656Z,12.70
2023-03-21T07:02:51.403Z,12.71
2023-03-21T07:03:58.062Z,12.73
2023-03-21T07:05:03.184Z,12.78
2023-03-21T07:06:10.308Z,12.80
2023-03-21T07:07:15.278Z,12.83
2023-03-21T07:08:19.560Z,12.83
2023-03-21T07:09:28.486Z,12.84
2023-03-21T07:10:40.832Z,12.84
2023-03-21T07:11:44.314Z,12.87
2023-03-21T07:12:48.193Z,12.83
2023-03-21T07:14:01.569Z,12.84
2023-03-21T07:15:07.586Z,12.85
2023-03-21T07:16:12.448Z,12.87
2023-03-21T07:17:16.439Z,12.87
2023-03-21T07:18:20.422Z,12.88
2023-03-21T07:19:24.741Z,12.89
2023-03-21T07:20:28.815Z,12.93
2023-03-21T07:21:33.328Z,12.94
2023-03-21T07:22:37.556Z,12.97
2023-03-21T07:23:41.251Z,12.97
2023-03-21T07:24:48.928Z,12.96
2023-03-21T07:25:54.966Z,12.98
2023-03-21T07:26:59.520Z,12.99
2023-03-21T07:28:03.991Z,13.00
2023-03-21T07:29:07.602Z,13.02
2023-03-21T07:30:11.878Z,13.06
2023-03-21T07:31:17.315Z,13.08
2023-03-21T07:32:21.440Z,13.09
2023-03-21T07:33:27.299Z,13.11
2023-03-21T07:34:34.866Z,13.14
2023-03-21T07:35:40.766Z,13.20
2023-03-21T07:36:44.476Z,13.24
2023-03-21T07:37:49.199Z,13.29
2023-03-21T07:38:53.839Z,13.33
2023-03-21T07:40:00.661Z,13.40
2023-03-21T07:41:04.190Z,13.47
2023-03-21T07:42:12.375Z,13.48
2023-03-21T07:43:16.795Z,13.52
2023-03-21T07:44:21.375Z,13.53
2023-03-21T07:45:30.603Z,13.57
2023-03-21T07:46:34.532Z,13.60
2023-03-21T07:47:38.566Z,13.70
2023-03-21T07:48:42.177Z,13.78
2023-03-21T07:49:46.187Z,13.74
2023-03-21T07:50:51.497Z,13.78
2023-03-21T07:51:55.535Z,13.86
2023-03-21T07:52:59.532Z,13.93
2023-03-21T07:54:03.683Z,14.00
2023-03-21T07:55:07.445Z,14.04
2023-03-21T07:56:11.787Z,14.07
2023-03-21T07:57:15.688Z,14.01
2023-03-21T07:58:19.828Z,14.00
2023-03-21T07:59:24.086Z,14.08
2023-03-21T08:00:28.386Z,14.07
2023-03-21T08:01:31.972Z,14.07
2023-03-21T08:02:35.886Z,14.05
2023-03-21T08:03:39.811Z,14.08
2023-03-21T08:04:43.291Z,14.13
2023-03-21T08:05:47.552Z,14.18
2023-03-21T08:06:51.773Z,14.21
2023-03-21T08:07:55.271Z,14.22
2023-03-21T08:08:59.758Z,14.34
2023-03-21T08:10:03.742Z,14.30
2023-03-21T08:11:07.984Z,14.09
2023-03-21T08:12:11.718Z,14.21
2023-03-21T08:13:15.289Z,14.24
2023-03-21T08:14:19.187Z,14.20
2023-03-21T08:15:23.421Z,14.24
2023-03-21T08:16:27.516Z,14.29
2023-03-21T08:17:31.534Z,14.59
2023-03-21T08:18:35.145Z,14.87
2023-03-21T08:19:38.718Z,15.16
2023-03-21T08:20:42.281Z,15.50
2023-03-21T09:10:19.887Z,29.33
2023-03-21T09:11:25.048Z,29.96
2023-03-21T09:12:29.028Z,30.37
2023-03-21T09:13:32.676Z,30.86
2023-03-21T09:14:36.860Z,30.56
2023-03-21T09:15:41.269Z,30.96
2023-03-21T09:16:44.744Z,30.83
2023-03-21T09:17:53.385Z,30.35
2023-03-21T09:18:57.639Z,31.04
2023-03-21T09:20:12.413Z,31.31
2023-03-21T09:21:21.342Z,31.64
2023-03-21T09:22:26.152Z,31.65
2023-03-21T09:23:30.027Z,31.94
2023-03-21T09:24:33.409Z,31.92
2023-03-21T09:25:37.410Z,31.98
2023-03-21T09:26:41.015Z,32.27
2023-03-21T09:27:46.419Z,32.64
2023-03-21T09:28:51.198Z,33.10
2023-03-21T09:29:54.963Z,33.11
2023-03-21T09:31:01.325Z,33.61
2023-03-21T09:32:07.668Z,33.49
2023-03-21T09:33:21.729Z,33.94
2023-03-21T09:34:25.621Z,33.85
2023-03-21T09:35:29.860Z,33.97
2023-03-21T09:36:35.602Z,33.88
2023-03-21T09:37:43.151Z,33.42
2023-03-21T09:38:47.650Z,33.89
2023-03-21T09:39:52.782Z,33.86
2023-03-21T09:41:06.832Z,33.96
2023-03-21T09:42:21.658Z,34.20
2023-03-21T09:43:35.121Z,34.55
2023-03-21T09:44:53.477Z,34.97
2023-03-21T09:46:15.951Z,34.92
2023-03-21T09:47:29.553Z,35.03
2023-03-21T09:48:56.777Z,35.28
2023-03-21T09:50:15.139Z,35.38
2023-03-21T09:51:19.687Z,35.05
2023-03-21T09:52:29.524Z,35.12
2023-03-21T09:53:41.115Z,34.96
2023-03-21T09:54:45.264Z,35.12
2023-03-21T09:55:48.763Z,35.49
2023-03-21T09:56:54.141Z,35.83
2023-03-21T09:58:27.128Z,36.06
2023-03-21T09:59:41.047Z,36.25
2023-03-21T10:00:48.109Z,36.44
2023-03-21T10:01:51.628Z,36.44
2023-03-21T10:03:00.630Z,36.53
2023-03-21T10:04:06.861Z,36.29
2023-03-21T10:05:30.870Z,36.46
2023-03-21T10:06:39.760Z,35.78
2023-03-21T10:07:48.200Z,35.53
2023-03-21T10:08:53.262Z,35.24
2023-03-21T10:09:58.467Z,34.34
2023-03-21T10:11:08.303Z,34.32
2023-03-21T10:12:22.531Z,34.03
2023-03-21T10:13:27.707Z,33.56
2023-03-21T10:14:36.293Z,33.86
2023-03-21T10:15:40.336Z,33.41
2023-03-21T10:16:50.171Z,32.82
2023-03-21T10:18:06.574Z,32.11
2023-03-21T10:19:13.459Z,32.15
2023-03-21T10:20:18.161Z,31.42
2023-03-21T10:21:56.441Z,30.22
2023-03-21T10:22:53.071Z,30.17
2023-03-21T10:23:58.508Z,30.40
2023-03-21T10:25:02.100Z,30.60
2023-03-21T10:26:07.191Z,30.47
2023-03-21T10:27:10.970Z,30.77
2023-03-21T10:28:17.668Z,29.88
2023-03-21T10:29:24.039Z,30.73
2023-03-21T10:30:51.980Z,31.71
2023-03-21T10:31:56.237Z,32.52
2023-03-21T10:33:02.950Z,33.13
2023-03-21T10:34:15.294Z,33.14
2023-03-21T10:35:19.148Z,32.86
2023-03-21T10:36:27.157Z,31.82
2023-03-21T10:37:30.867Z,30.88
2023-03-21T10:38:34.706Z,30.61
2023-03-21T10:39:43.092Z,30.57
2023-03-21T10:40:47.070Z,30.76
2023-03-21T10:41:50.958Z,30.86
2023-03-21T10:42:57.912Z,30.56
2023-03-21T10:44:10.278Z,30.15
2023-03-21T10:45:19.346Z,29.02
2023-03-21T10:46:24.297Z,28.39
2023-03-21T10:47:34.987Z,27.44
2023-03-21T10:48:40.512Z,26.85
2023-03-21T10:50:06.412Z,27.02
2023-03-21T10:51:10.231Z,26.69
2023-03-21T10:52:15.081Z,26.00
2023-03-21T10:53:23.656Z,25.75
2023-03-21T10:54:30.402Z,25.67
2023-03-21T10:55:37.679Z,25.73
2023-03-21T10:57:21.983Z,24.81
2023-03-21T10:58:33.835Z,24.80
2023-03-21T10:59:44.845Z,24.99
2023-03-21T11:00:48.935Z,25.05
2023-03-21T11:01:53.867Z,25.32
2023-03-21T11:02:57.508Z,25.16
2023-03-21T11:04:02.437Z,25.48
2023-03-21T11:05:07.354Z,25.40
2023-03-21T11:06:23.590Z,25.87
2023-03-21T11:07:31.656Z,26.27
2023-03-21T11:08:44.701Z,26.39
2023-03-21T11:09:54.770Z,26.07
2023-03-21T11:11:09.358Z,26.40
2023-03-21T11:12:15.362Z,26.27
2023-03-21T11:13:21.016Z,26.54
2023-03-21T11:14:37.123Z,26.72
2023-03-21T11:15:54.268Z,26.72
2023-03-21T11:16:58.237Z,27.05
2023-03-21T11:18:14.522Z,27.39
2023-03-21T11:19:33.168Z,28.02
2023-03-21T11:20:37.269Z,27.78
2023-03-21T11:21:41.267Z,27.59
2023-03-21T11:22:45.194Z,27.22
2023-03-21T11:23:53.355Z,27.37
2023-03-21T11:25:03.541Z,27.28
2023-03-21T11:26:11.522Z,27.60
2023-03-21T11:27:15.068Z,27.80
2023-03-21T11:28:21.617Z,28.20
2023-03-21T11:29:32.494Z,28.64
2023-03-21T11:30:36.382Z,29.30
2023-03-21T11:31:40.386Z,29.78
2023-03-21T11:32:44.460Z,30.33
2023-03-21T11:33:57.968Z,30.62
2023-03-21T11:35:06.148Z,30.57
2023-03-21T11:36:39.474Z,30.69
2023-03-21T11:37:48.687Z,30.52
2023-03-21T11:38:54.561Z,30.01
2023-03-21T11:40:08.075Z,30.22
2023-03-21T11:41:13.424Z,30.10
2023-03-21T11:42:32.315Z,30.37
2023-03-21T11:43:38.067Z,30.07
2023-03-21T11:44:44.838Z,30.04
2023-03-21T11:46:10.434Z,30.29
2023-03-21T11:47:14.141Z,30.11
2023-03-21T11:48:17.748Z,30.44
2023-03-21T11:49:22.136Z,30.87
2023-03-21T11:50:35.296Z,30.39
2023-03-21T11:51:50.153Z,30.93
2023-03-21T11:53:30.359Z,31.52
2023-03-21T11:54:59.530Z,31.49
2023-03-21T11:56:34.273Z,30.64
2023-03-21T11:57:54.748Z,30.60
2023-03-21T11:59:19.836Z,30.32
2023-03-21T12:00:33.704Z,30.59
2023-03-21T12:01:47.062Z,30.82
2023-03-21T12:03:13.110Z,30.80
2023-03-21T12:04:34.771Z,30.50
2023-03-21T12:05:40.354Z,30.56
2023-03-21T12:07:14.041Z,30.99
2023-03-21T12:08:24.473Z,31.07
2023-03-21T12:09:56.201Z,31.45
2023-03-21T12:11:26.568Z,31.44
2023-03-21T12:12:44.766Z,31.59
2023-03-21T12:14:10.548Z,30.95
2023-03-21T12:15:44.101Z,31.59
2023-03-21T12:17:04.306Z,31.97
2023-03-21T12:18:32.075Z,31.96
2023-03-21T12:19:59.497Z,32.35
2023-03-21T12:21:41.790Z,33.03
2023-03-21T12:23:03.682Z,33.66
2023-03-21T12:24:23.509Z,33.01
2023-03-21T12:25:56.841Z,32.60
2023-03-21T12:29:16.827Z,31.40
2023-03-21T12:30:38.829Z,30.47
2023-03-21T12:31:46.017Z,30.41
2023-03-21T12:33:01.250Z,31.14
2023-03-21T12:34:10.838Z,31.33
2023-03-21T12:35:32.564Z,31.19
2023-03-21T12:36:57.740Z,31.68
2023-03-21T12:38:05.022Z,32.44
2023-03-21T12:40:02.228Z,32.95
2023-03-21T12:41:26.157Z,33.75
2023-03-21T12:42:58.605Z,34.14
2023-03-21T12:44:18.145Z,34.34
2023-03-21T12:45:45.713Z,34.24
2023-03-21T12:47:05.504Z,34.83
2023-03-21T12:48:37.015Z,34.20
2023-03-21T12:50:16.948Z,33.53
2023-03-21T12:51:21.486Z,33.62
2023-03-21T12:52:30.704Z,34.06
2023-03-21T12:53:53.614Z,34.48
2023-03-21T12:55:08.737Z,34.78
2023-03-21T12:56:16.232Z,34.43
2023-03-21T12:57:27.502Z,33.98
2023-03-21T12:58:31.682Z,33.57
2023-03-21T12:59:44.309Z,32.98
2023-03-21T13:00:51.743Z,32.52
2023-03-21T13:01:57.402Z,32.83
2023-03-21T13:03:15.612Z,33.28
2023-03-21T13:04:39.834Z,33.17
2023-03-21T13:05:47.575Z,33.71
2023-03-21T13:06:51.172Z,34.14
2023-03-21T13:08:07.771Z,33.89
2023-03-21T13:09:42.896Z,33.19
2023-03-21T13:10:46.861Z,33.26
2023-03-21T13:11:50.360Z,33.37
2023-03-21T13:13:18.352Z,33.12
2023-03-21T13:14:32.846Z,32.92
2023-03-21T13:16:12.756Z,32.19
2023-03-21T13:17:21.793Z,31.53
2023-03-21T13:18:34.256Z,31.49
2023-03-21T13:19:48.175Z,31.22
2023-03-21T13:20:56.535Z,30.74
2023-03-21T13:22:29.485Z,30.90
2023-03-21T13:23:37.567Z,30.70
2023-03-21T13:24:49.986Z,30.71
2023-03-21T13:25:55.326Z,30.52
2023-03-21T13:27:15.693Z,30.02
2023-03-21T13:28:27.227Z,28.78
2023-03-21T13:29:50.636Z,27.88
2023-03-21T13:30:54.387Z,27.81
2023-03-21T13:32:05.692Z,27.62
2023-03-21T13:33:12.831Z,27.23
2023-03-21T13:34:16.631Z,26.71
2023-03-21T13:35:38.864Z,26.83
2023-03-21T13:36:43.097Z,26.83
2023-03-21T13:38:04.591Z,26.48
2023-03-21T13:39:13.819Z,26.36
2023-03-21T13:40:29.130Z,26.53
2023-03-21T13:41:35.544Z,26.20
2023-03-21T13:42:45.040Z,25.83
2023-03-21T13:44:04.590Z,26.06
2023-03-21T13:45:11.705Z,26.06
2023-03-21T13:46:16.755Z,26.11
2023-03-21T13:47:38.861Z,26.28
2023-03-21T13:48:49.360Z,25.97
2023-03-21T13:50:22.403Z,25.60
2023-03-21T13:51:38.100Z,25.60
2023-03-21T13:52:42.086Z,25.58
2023-03-21T13:53:52.049Z,25.63
2023-03-21T13:54:56.637Z,25.43
2023-03-21T13:56:21.585Z,25.38
2023-03-21T13:57:31.430Z,25.20
2023-03-21T13:58:36.162Z,25.35
2023-03-21T13:59:39.973Z,25.40
2023-03-21T14:00:44.781Z,25.07
2023-03-21T14:02:22.069Z,25.25
2023-03-21T14:03:26.020Z,24.87
2023-03-21T14:04:42.059Z,24.72
2023-03-21T14:05:51.292Z,24.66
2023-03-21T14:07:15.634Z,24.63
2023-03-21T14:08:31.198Z,24.59
2023-03-21T14:09:43.078Z,24.47
2023-03-21T14:10:47.776Z,24.36
2023-03-21T14:11:54.779Z,24.39
2023-03-21T14:13:01.421Z,24.38
2023-03-21T14:14:05.066Z,24.23
2023-03-21T14:15:57.121Z,24.32
2023-03-21T14:17:00.974Z,24.52
2023-03-21T14:18:16.004Z,24.14
2023-03-21T14:19:32.858Z,23.97
2023-03-21T14:20:39.280Z,24.05
2023-03-21T14:21:52.213Z,24.17
2023-03-21T14:22:55.977Z,24.26
2023-03-21T14:24:07.045Z,24.22
2023-03-21T14:25:14.320Z,24.35
2023-03-21T14:26:18.184Z,24.31
2023-03-21T14:27:22.016Z,24.30
2023-03-21T14:28:28.917Z,24.03
2023-03-21T14:29:36.561Z,23.91
2023-03-21T14:30:41.622Z,24.12
2023-03-21T14:31:47.665Z,24.27
2023-03-21T14:32:51.709Z,24.32
2023-03-21T14:33:58.288Z,24.28
2023-03-21T14:35:02.476Z,24.33
2023-03-21T14:36:12.630Z,24.08
2023-03-21T14:37:33.940Z,23.92
2023-03-21T14:38:39.225Z,24.09
2023-03-21T14:39:42.718Z,24.13
2023-03-21T14:40:51.266Z,24.06
2023-03-21T14:41:56.365Z,24.01
2023-03-21T14:43:01.428Z,23.63
2023-03-21T14:44:11.216Z,23.32
2023-03-21T14:53:02.517Z,22.92
2023-03-21T14:54:07.117Z,22.95
2023-03-21T14:55:16.510Z,22.87
2023-03-21T14:56:26.259Z,22.87
2023-03-21T14:57:31.547Z,22.89
2023-03-21T14:58:35.454Z,22.87
2023-03-21T14:59:39.918Z,22.61
2023-03-21T15:00:43.759Z,22.44
2023-03-21T15:01:48.245Z,22.42
2023-03-21T15:02:52.070Z,22.51
2023-03-21T15:03:56.116Z,22.51
2023-03-21T15:05:07.109Z,22.41
2023-03-21T15:06:15.657Z,22.46
2023-03-21T15:07:35.312Z,22.52
2023-03-21T15:08:39.248Z,22.52
2023-03-21T15:09:43.079Z,22.64
2023-03-21T15:11:06.938Z,22.38
2023-03-21T15:12:14.738Z,22.33
2023-03-21T15:14:34.581Z,22.26
2023-03-21T15:15:38.530Z,22.16
2023-03-21T15:16:42.736Z,22.13
2023-03-21T15:17:47.186Z,22.11
2023-03-21T15:18:50.734Z,21.93
2023-03-21T15:19:54.785Z,21.88
2023-03-21T15:20:59.382Z,21.96
2023-03-21T15:22:07.545Z,21.99
2023-03-21T15:23:15.085Z,21.92
2023-03-21T15:24:28.170Z,22.01
2023-03-21T15:25:34.118Z,21.98
2023-03-21T15:26:38.501Z,21.95
2023-03-21T15:27:42.778Z,21.86
2023-03-21T15:28:47.496Z,21.73
2023-03-21T15:29:54.325Z,21.73
2023-03-21T15:30:57.934Z,21.62
2023-03-21T15:32:04.494Z,21.52
2023-03-21T15:33:10.364Z,21.49
2023-03-21T15:34:30.557Z,21.51
2023-03-21T15:35:39.836Z,21.52
2023-03-21T15:36:48.582Z,21.55
2023-03-21T15:37:56.697Z,21.55
2023-03-21T15:39:05.085Z,21.44
2023-03-21T15:40:19.390Z,21.39
2023-03-21T15:41:23.890Z,21.44
2023-03-21T15:42:30.411Z,21.42
2023-03-21T15:43:40.706Z,21.47
2023-03-21T15:44:46.901Z,21.45
2023-03-21T15:45:55.111Z,21.37
2023-03-21T15:46:59.255Z,21.24
2023-03-21T15:48:14.104Z,21.15
2023-03-21T15:49:17.704Z,21.07
2023-03-21T15:50:40.841Z,21.11
2023-03-21T15:52:20.251Z,21.21
2023-03-21T15:53:24.360Z,21.22
2023-03-21T15:54:33.366Z,21.27
2023-03-21T15:55:58.038Z,21.37
2023-03-21T15:57:09.947Z,21.36
2023-03-21T15:58:19.118Z,21.37
2023-03-21T15:59:25.688Z,21.29
2023-03-21T16:00:44.439Z,21.21
2023-03-21T16:01:49.100Z,21.17
2023-03-21T16:02:58.448Z,21.04
2023-03-21T16:04:14.185Z,20.94
2023-03-21T16:05:34.085Z,20.87
2023-03-21T16:06:39.341Z,20.93